createdAt,value
2018-06-08T00:00:09.548Z,87.78
2018-06-08T00:01:09.542Z,87.97
2018-06-08T00:02:09.532Z,87.10
2018-06-08T00:03:09.519Z,88.84
2018-06-08T00:04:09.508Z,87.97
2018-06-08T00:05:09.524Z,89.32
2018-06-08T00:06:09.486Z,90.00
2018-06-08T00:07:09.477Z,89.51
2018-06-08T00:08:09.469Z,89.90
2018-06-08T00:09:09.455Z,89.90
2018-06-08T00:10:09.444Z,90.48
2018-06-08T00:11:09.435Z,89.03
2018-06-08T00:12:09.423Z,90.48
2018-06-08T00:13:09.412Z,90.38
2018-06-08T00:14:09.401Z,88.93
2018-06-08T00:15:09.390Z,89.76
2018-06-08T00:16:09.383Z,89.67
2018-06-08T00:17:09.370Z,89.90
2018-06-08T00:18:09.360Z,89.57
2018-06-08T00:19:09.348Z,88.60
2018-06-08T00:20:09.339Z,90.05
2018-06-08T00:21:09.336Z,90.05
2018-06-08T00:22:09.315Z,89.47
2018-06-08T00:23:09.310Z,89.67
2018-06-08T00:24:09.297Z,89.47
2018-06-08T00:25:09.284Z,88.99
2018-06-08T00:26:09.272Z,89.37
2018-06-08T00:27:09.263Z,90.53
2018-06-08T00:28:09.270Z,89.95
2018-06-08T00:29:09.241Z,90.44
2018-06-08T00:30:09.232Z,90.72
2018-06-08T00:31:09.221Z,89.86
2018-06-08T00:32:09.207Z,90.05
2018-06-08T00:33:09.198Z,89.86
2018-06-08T00:34:09.189Z,88.89
2018-06-08T00:35:09.177Z,88.79
2018-06-08T00:36:09.165Z,89.95
2018-06-08T00:37:09.155Z,89.76
2018-06-08T00:38:09.145Z,89.95
2018-06-08T00:39:09.135Z,90.63
2018-06-08T00:40:09.121Z,89.37
2018-06-08T00:41:09.167Z,89.67
2018-06-08T00:42:09.102Z,91.11
2018-06-08T00:43:09.091Z,91.50
2018-06-08T00:44:09.078Z,92.17
2018-06-08T00:45:09.069Z,90.39
2018-06-08T00:46:09.056Z,89.37
2018-06-08T00:47:09.045Z,89.81
2018-06-08T00:48:09.032Z,89.72
2018-06-08T00:49:09.024Z,89.14
2018-06-08T00:50:09.016Z,89.53
2018-06-08T00:51:09.001Z,89.81
2018-06-08T00:52:08.992Z,90.39
2018-06-08T00:53:08.984Z,90.78
2018-06-08T00:54:08.969Z,90.20
2018-06-08T00:55:08.959Z,91.26
2018-06-08T00:56:08.948Z,90.68
2018-06-08T00:57:08.939Z,91.93
2018-06-08T00:58:08.924Z,91.36
2018-06-08T00:59:08.915Z,91.93
2018-06-08T01:00:08.905Z,92.03
2018-06-08T01:01:08.896Z,92.22
2018-06-08T01:02:08.882Z,92.85
2018-06-08T01:03:08.870Z,93.28
2018-06-08T01:04:08.860Z,92.85
2018-06-08T01:05:08.848Z,92.47
2018-06-08T01:06:08.837Z,92.85
2018-06-08T01:07:08.827Z,92.76
2018-06-08T01:08:08.812Z,93.62
2018-06-08T01:09:08.805Z,93.33
2018-06-08T01:10:08.793Z,93.62
2018-06-08T01:11:08.782Z,94.39
2018-06-08T01:12:08.771Z,95.45
2018-06-08T01:13:08.761Z,94.63
2018-06-08T01:14:08.748Z,95.94
2018-06-08T01:15:08.747Z,94.97
2018-06-08T01:16:08.725Z,94.59
2018-06-08T01:17:08.714Z,94.59
2018-06-08T01:18:08.704Z,94.78
2018-06-08T01:19:08.701Z,95.45
2018-06-08T01:20:08.681Z,95.55
2018-06-08T01:21:08.673Z,96.08
2018-06-08T01:22:08.659Z,95.84
2018-06-08T01:23:08.652Z,95.45
2018-06-08T01:24:08.637Z,95.26
2018-06-08T01:25:08.627Z,95.74
2018-06-08T01:26:08.614Z,96.32
2018-06-08T01:27:08.606Z,95.64
2018-06-08T01:28:08.592Z,96.42
2018-06-08T01:29:08.582Z,96.51
2018-06-08T01:30:08.570Z,96.42
2018-06-08T01:31:08.558Z,96.32
2018-06-08T01:32:08.548Z,96.22
2018-06-08T01:33:08.538Z,96.42
2018-06-08T01:34:08.524Z,96.12
2018-06-08T01:35:08.515Z,95.64
2018-06-08T01:36:08.505Z,96.12
2018-06-08T01:37:08.488Z,96.22
2018-06-08T01:38:08.485Z,95.84
2018-06-08T01:39:08.470Z,96.51
2018-06-08T01:40:08.458Z,96.51
2018-06-08T01:41:08.456Z,96.32
2018-06-08T01:42:08.436Z,97.47
2018-06-08T01:43:08.425Z,97.28
2018-06-08T01:44:08.416Z,96.22
2018-06-08T01:45:08.402Z,96.51
2018-06-08T01:46:08.391Z,96.70
2018-06-08T01:47:08.379Z,97.86
2018-06-08T01:48:08.372Z,98.24
2018-06-08T01:49:08.357Z,98.63
2018-06-08T01:50:08.346Z,97.57
2018-06-08T01:51:08.338Z,97.96
2018-06-08T01:52:08.328Z,98.24
2018-06-08T01:53:08.314Z,97.86
2018-06-08T01:54:08.301Z,98.92
2018-06-08T01:55:08.295Z,98.82
2018-06-08T01:56:08.279Z,98.72
2018-06-08T01:57:08.268Z,97.96
2018-06-08T01:58:08.256Z,98.15
2018-06-08T01:59:08.248Z,98.44
2018-06-08T02:00:08.234Z,99.59
2018-06-08T02:01:08.223Z,99.99
2018-06-08T02:02:08.211Z,99.99
2018-06-08T02:03:08.199Z,99.99
2018-06-08T02:04:08.188Z,99.99
2018-06-08T02:05:08.178Z,99.69
2018-06-08T02:06:08.166Z,99.98
2018-06-08T02:07:08.156Z,99.88
2018-06-08T02:08:08.146Z,99.88
2018-06-08T02:09:08.132Z,99.99
2018-06-08T02:10:08.120Z,99.54
2018-06-08T02:11:08.112Z,99.99
2018-06-08T02:12:08.103Z,99.99
2018-06-08T02:13:08.088Z,99.99
2018-06-08T02:14:08.075Z,99.99
2018-06-08T02:15:08.075Z,99.99
2018-06-08T02:16:08.053Z,99.99
2018-06-08T02:17:08.133Z,99.99
2018-06-08T02:18:08.056Z,99.99
2018-06-08T02:19:08.044Z,99.99
2018-06-08T02:20:08.032Z,99.99
2018-06-08T02:21:08.021Z,99.99
2018-06-08T02:22:08.009Z,99.99
2018-06-08T02:24:39.794Z,99.99
2018-06-08T02:25:39.765Z,99.99
2018-06-08T02:27:33.220Z,99.99
2018-06-08T02:28:32.792Z,99.99
2018-06-08T02:30:25.907Z,99.99
2018-06-08T02:31:25.846Z,99.99
2018-06-08T02:33:18.915Z,99.99
2018-06-08T02:34:18.882Z,99.99
2018-06-08T02:36:11.982Z,99.99
2018-06-08T02:37:11.913Z,99.99
2018-06-08T02:39:04.982Z,99.99
2018-06-08T02:40:04.943Z,99.99
2018-06-08T02:41:58.038Z,99.99
2018-06-08T02:42:57.973Z,99.99
2018-06-08T02:44:52.578Z,99.99
2018-06-08T02:45:52.500Z,99.99
2018-06-08T02:47:45.583Z,99.99
2018-06-08T02:48:45.540Z,99.99
2018-06-08T02:50:38.640Z,99.99
2018-06-08T02:51:38.581Z,99.99
2018-06-08T02:53:31.674Z,99.99
2018-06-08T02:54:31.621Z,99.93
2018-06-08T02:56:24.711Z,99.99
2018-06-08T02:57:24.678Z,99.99
2018-06-08T02:59:18.158Z,99.84
2018-06-08T03:00:17.712Z,99.98
2018-06-08T03:02:10.808Z,99.99
2018-06-08T03:03:10.749Z,99.99
2018-06-08T03:05:03.855Z,99.88
2018-06-08T03:06:03.814Z,99.99
2018-06-08T03:07:03.807Z,99.99
2018-06-08T03:08:03.794Z,99.99
2018-06-08T03:09:03.807Z,99.99
2018-06-08T03:10:03.768Z,99.99
2018-06-08T03:11:03.761Z,99.99
2018-06-08T03:12:03.791Z,99.99
2018-06-08T03:13:03.734Z,99.99
2018-06-08T03:14:03.731Z,99.99
2018-06-08T03:15:03.710Z,99.99
2018-06-08T03:16:03.699Z,99.99
2018-06-08T03:17:03.687Z,99.99
2018-06-08T03:18:03.681Z,99.99
2018-06-08T03:19:03.668Z,99.99
2018-06-08T03:20:03.655Z,99.99
2018-06-08T03:21:03.643Z,99.99
2018-06-08T03:22:03.634Z,99.99
2018-06-08T03:23:03.624Z,99.99
2018-06-08T03:24:03.607Z,99.99
2018-06-08T03:25:03.596Z,99.99
2018-06-08T03:26:03.589Z,99.99
2018-06-08T03:27:03.574Z,99.99
2018-06-08T03:28:03.570Z,99.99
2018-06-08T03:29:03.556Z,99.99
2018-06-08T03:30:03.545Z,99.99
2018-06-08T03:31:03.527Z,99.99
2018-06-08T03:32:03.516Z,99.99
2018-06-08T03:33:03.508Z,99.88
2018-06-08T03:34:03.496Z,99.98
2018-06-08T03:35:03.487Z,99.98
2018-06-08T03:36:03.544Z,99.99
2018-06-08T03:37:03.462Z,99.88
2018-06-08T03:38:03.460Z,99.99
2018-06-08T03:39:03.442Z,99.99
2018-06-08T03:40:03.426Z,99.99
2018-06-08T03:41:03.420Z,99.99
2018-06-08T03:42:03.401Z,99.99
2018-06-08T03:43:03.391Z,99.99
2018-06-08T03:44:03.381Z,99.99
2018-06-08T03:45:03.378Z,99.99
2018-06-08T03:46:03.360Z,99.99
2018-06-08T03:47:03.349Z,99.99
2018-06-08T03:48:03.337Z,99.98
2018-06-08T03:49:03.359Z,99.99
2018-06-08T03:50:03.321Z,99.99
2018-06-08T03:51:03.306Z,99.98
2018-06-08T03:52:03.290Z,99.99
2018-06-08T03:53:03.282Z,99.99
2018-06-08T03:54:03.267Z,99.99
2018-06-08T03:55:03.266Z,99.99
2018-06-08T03:56:03.299Z,99.99
2018-06-08T03:57:03.238Z,99.99
2018-06-08T03:58:03.224Z,99.99
2018-06-08T03:59:03.210Z,99.99
2018-06-08T04:00:03.198Z,99.99
2018-06-08T04:01:03.196Z,99.99
2018-06-08T04:02:03.177Z,99.99
2018-06-08T04:03:03.169Z,99.99
2018-06-08T04:04:03.153Z,99.11
2018-06-08T04:05:03.144Z,98.82
2018-06-08T04:06:03.137Z,98.63
2018-06-08T04:07:03.123Z,98.63
2018-06-08T04:08:03.118Z,98.92
2018-06-08T04:09:03.101Z,99.35
2018-06-08T04:10:03.087Z,99.55
2018-06-08T04:11:03.084Z,98.68
2018-06-08T04:12:03.066Z,98.77
2018-06-08T04:13:03.154Z,99.99
2018-06-08T04:14:03.041Z,99.16
2018-06-08T04:15:03.034Z,98.49
2018-06-08T04:16:03.023Z,99.07
2018-06-08T04:17:03.013Z,99.16
2018-06-08T04:18:03.015Z,98.77
2018-06-08T04:19:02.992Z,98.49
2018-06-08T04:20:02.978Z,98.68
2018-06-08T04:21:02.974Z,99.16
2018-06-08T04:22:02.955Z,99.50
2018-06-08T04:23:02.949Z,98.77
2018-06-08T04:24:02.932Z,99.16
2018-06-08T04:25:02.922Z,99.11
2018-06-08T04:26:02.911Z,98.87
2018-06-08T04:27:02.909Z,99.35
2018-06-08T04:28:02.892Z,99.79
2018-06-08T04:29:02.873Z,99.50
2018-06-08T04:30:02.869Z,99.69
2018-06-08T04:31:02.860Z,99.99
2018-06-08T04:32:02.840Z,99.99
2018-06-08T04:33:02.982Z,98.77
2018-06-08T04:34:02.823Z,99.16
2018-06-08T04:35:02.808Z,99.74
2018-06-08T04:36:02.797Z,99.84
2018-06-08T04:37:02.787Z,99.93
2018-06-08T04:38:02.784Z,98.97
2018-06-08T04:39:02.766Z,99.35
2018-06-08T04:40:02.809Z,99.45
2018-06-08T04:41:02.744Z,99.16
2018-06-08T04:42:02.730Z,99.64
2018-06-08T04:43:02.722Z,99.35
2018-06-08T04:44:02.705Z,99.07
2018-06-08T04:45:02.709Z,98.77
2018-06-08T04:46:02.691Z,98.87
2018-06-08T04:47:02.677Z,99.07
2018-06-08T04:48:02.667Z,99.35
2018-06-08T04:49:02.656Z,98.97
2018-06-08T04:50:02.645Z,98.77
2018-06-08T04:51:02.643Z,98.77
2018-06-08T04:52:02.629Z,98.77
2018-06-08T04:53:02.610Z,98.87
2018-06-08T04:54:02.600Z,99.55
2018-06-08T04:55:02.586Z,98.77
2018-06-08T04:56:02.585Z,99.26
2018-06-08T04:57:02.570Z,99.16
2018-06-08T04:58:02.561Z,98.97
2018-06-08T04:59:02.542Z,98.29
2018-06-08T05:00:02.555Z,98.00
2018-06-08T05:01:02.543Z,97.62
2018-06-08T05:02:02.511Z,96.51
2018-06-08T05:03:02.498Z,96.03
2018-06-08T05:04:02.503Z,96.03
2018-06-08T05:05:02.507Z,95.54
2018-06-08T05:06:02.466Z,95.54
2018-06-08T05:07:02.493Z,95.84
2018-06-08T05:08:02.468Z,95.45
2018-06-08T05:09:02.473Z,94.82
2018-06-08T05:10:02.424Z,94.82
2018-06-08T05:11:02.417Z,94.53
2018-06-08T05:12:02.435Z,94.53
2018-06-08T05:13:02.399Z,94.43
2018-06-08T05:14:02.389Z,94.53
2018-06-08T05:15:02.400Z,94.92
2018-06-08T05:16:02.376Z,94.92
2018-06-08T05:17:02.399Z,93.57
2018-06-08T05:18:02.348Z,93.62
2018-06-08T05:19:02.400Z,93.04
2018-06-08T05:20:02.350Z,91.97
2018-06-08T05:21:02.331Z,92.07
2018-06-08T05:22:02.324Z,92.26
2018-06-08T05:23:02.311Z,91.59
2018-06-08T05:24:02.284Z,91.39
2018-06-08T05:25:02.287Z,91.01
2018-06-08T05:26:02.271Z,91.20
2018-06-08T05:27:02.351Z,91.49
2018-06-08T05:28:02.259Z,91.25
2018-06-08T05:29:02.237Z,91.74
2018-06-08T05:30:02.225Z,91.93
2018-06-08T05:31:02.218Z,91.59
2018-06-08T05:32:02.206Z,93.52
2018-06-08T05:33:02.295Z,91.59
2018-06-08T05:34:02.177Z,91.59
2018-06-08T05:35:02.193Z,92.26
2018-06-08T05:36:02.192Z,91.78
2018-06-08T05:37:02.163Z,92.46
2018-06-08T05:38:02.149Z,91.39
2018-06-08T05:39:02.124Z,91.11
2018-06-08T05:40:02.123Z,92.46
2018-06-08T05:41:02.115Z,90.91
2018-06-08T05:42:02.118Z,91.49
2018-06-08T05:43:02.125Z,90.72
2018-06-08T05:44:02.087Z,91.59
2018-06-08T05:45:02.105Z,89.65
2018-06-08T05:46:02.071Z,90.33
2018-06-08T05:47:02.053Z,89.65
2018-06-08T05:48:02.036Z,89.07
2018-06-08T05:49:02.034Z,89.37
2018-06-08T05:50:02.028Z,89.41
2018-06-08T05:51:02.052Z,89.41
2018-06-08T05:52:02.010Z,89.31
2018-06-08T05:53:01.991Z,88.93
2018-06-08T05:54:01.991Z,88.15
2018-06-08T05:55:02.028Z,88.93
2018-06-08T05:56:01.976Z,87.96
2018-06-08T05:57:01.976Z,88.15
2018-06-08T05:58:01.957Z,87.38
2018-06-08T05:59:01.938Z,87.13
2018-06-08T06:00:01.923Z,87.81
2018-06-08T06:01:01.929Z,87.52
2018-06-08T06:02:01.915Z,87.67
2018-06-08T06:03:01.931Z,86.65
2018-06-08T06:04:01.904Z,87.33
2018-06-08T06:05:01.879Z,86.36
2018-06-08T06:06:01.864Z,87.33
2018-06-08T06:07:01.854Z,86.36
2018-06-08T06:08:01.857Z,87.23
2018-06-08T06:09:01.843Z,86.17
2018-06-08T06:10:01.829Z,86.65
2018-06-08T06:11:01.818Z,86.90
2018-06-08T06:12:01.851Z,87.96
2018-06-08T06:13:01.843Z,88.45
2018-06-08T06:14:01.790Z,88.49
2018-06-08T06:15:01.791Z,88.29
2018-06-08T06:16:01.793Z,88.01
2018-06-08T06:17:01.754Z,87.23
2018-06-08T06:18:01.784Z,87.43
2018-06-08T06:19:01.737Z,87.33
2018-06-08T06:20:01.756Z,88.10
2018-06-08T06:21:01.772Z,88.15
2018-06-08T06:22:01.724Z,85.98
2018-06-08T06:23:01.734Z,85.69
2018-06-08T06:24:01.716Z,85.93
2018-06-08T06:25:01.713Z,86.65
2018-06-08T06:26:01.705Z,87.33
2018-06-08T06:27:01.683Z,87.13
2018-06-08T06:28:01.659Z,87.91
2018-06-08T06:29:01.668Z,88.01
2018-06-08T06:30:01.694Z,88.73
2018-06-08T06:31:01.631Z,88.93
2018-06-08T06:32:01.641Z,88.93
2018-06-08T06:33:01.638Z,89.79
2018-06-08T06:34:01.614Z,89.65
2018-06-08T06:35:01.595Z,89.65
2018-06-08T06:36:01.602Z,88.78
2018-06-08T06:37:01.582Z,89.55
2018-06-08T06:38:01.583Z,88.68
2018-06-08T06:39:01.562Z,89.36
2018-06-08T06:40:01.571Z,88.97
2018-06-08T06:41:01.531Z,88.87
2018-06-08T06:42:01.555Z,88.29
2018-06-08T06:43:01.521Z,87.37
2018-06-08T06:44:01.585Z,87.18
2018-06-08T06:45:01.503Z,87.57
2018-06-08T06:46:01.494Z,87.95
2018-06-08T06:47:01.485Z,86.41
2018-06-08T06:48:01.498Z,85.15
2018-06-08T06:49:01.482Z,85.73
2018-06-08T06:50:01.471Z,85.87
2018-06-08T06:51:01.450Z,84.71
2018-06-08T06:52:01.442Z,84.03
2018-06-08T06:53:01.444Z,84.03
2018-06-08T06:54:01.413Z,83.88
2018-06-08T06:55:01.451Z,82.62
2018-06-08T06:56:01.431Z,82.33
2018-06-08T06:57:01.398Z,81.95
2018-06-08T06:58:01.387Z,81.85
2018-06-08T06:59:01.381Z,82.72
2018-06-08T07:00:01.380Z,83.30
2018-06-08T07:01:01.362Z,82.53
2018-06-08T07:02:01.347Z,82.53
2018-06-08T07:03:01.345Z,82.18
2018-06-08T07:04:01.333Z,81.21
2018-06-08T07:05:01.346Z,80.69
2018-06-08T07:06:01.331Z,81.85
2018-06-08T07:07:01.364Z,82.33
2018-06-08T07:08:01.323Z,82.53
2018-06-08T07:09:01.311Z,82.33
2018-06-08T07:10:01.291Z,82.81
2018-06-08T07:11:01.280Z,82.78
2018-06-08T07:12:01.259Z,83.01
2018-06-08T07:13:01.271Z,84.17
2018-06-08T07:14:01.272Z,83.01
2018-06-08T07:15:01.289Z,83.01
2018-06-08T07:16:01.259Z,83.11
2018-06-08T07:17:01.224Z,83.49
2018-06-08T07:18:01.214Z,84.17
2018-06-08T07:19:01.217Z,84.36
2018-06-08T07:20:01.203Z,85.33
2018-06-08T07:21:01.204Z,84.56
2018-06-08T07:22:01.196Z,86.25
2018-06-08T07:23:01.195Z,87.95
2018-06-08T07:24:01.186Z,88.29
2018-06-08T07:25:01.182Z,89.36
2018-06-08T07:26:01.159Z,89.55
2018-06-08T07:27:01.174Z,90.23
2018-06-08T07:28:01.192Z,90.57
2018-06-08T07:29:01.133Z,91.00
2018-06-08T07:30:01.118Z,91.29
2018-06-08T07:31:01.115Z,91.39
2018-06-08T07:32:01.145Z,90.61
2018-06-08T07:33:01.093Z,89.84
2018-06-08T07:34:01.092Z,90.61
2018-06-08T07:35:01.070Z,90.52
2018-06-08T07:36:01.069Z,90.52
2018-06-08T07:37:01.171Z,91.00
2018-06-08T07:38:01.061Z,90.56
2018-06-08T07:39:01.043Z,89.89
2018-06-08T07:40:01.051Z,89.01
2018-06-08T07:41:01.052Z,89.50
2018-06-08T07:42:01.034Z,89.31
2018-06-08T07:43:01.081Z,89.69
2018-06-08T07:44:01.007Z,89.59
2018-06-08T07:45:01.012Z,89.40
2018-06-08T07:46:00.990Z,90.13
2018-06-08T07:47:00.984Z,90.86
2018-06-08T07:48:00.957Z,91.35
2018-06-08T07:49:00.950Z,91.49
2018-06-08T07:50:00.968Z,91.19
2018-06-08T07:51:00.953Z,89.65
2018-06-08T07:52:00.932Z,89.17
2018-06-08T07:53:00.914Z,89.75
2018-06-08T07:54:01.083Z,89.94
2018-06-08T07:55:00.896Z,90.13
2018-06-08T07:56:00.925Z,90.03
2018-06-08T07:57:00.883Z,91.53
2018-06-08T07:58:00.880Z,92.26
2018-06-08T07:59:00.880Z,92.84
2018-06-08T08:00:00.883Z,93.32
2018-06-08T08:01:00.849Z,93.62
2018-06-08T08:02:00.850Z,93.62
2018-06-08T08:03:00.825Z,92.69
2018-06-08T08:04:00.828Z,92.11
2018-06-08T08:05:00.816Z,91.83
2018-06-08T08:06:00.832Z,92.84
2018-06-08T08:07:00.814Z,93.85
2018-06-08T08:08:00.789Z,93.52
2018-06-08T08:09:00.777Z,94.48
2018-06-08T08:10:00.775Z,94.58
2018-06-08T08:11:00.803Z,95.74
2018-06-08T08:12:00.748Z,96.22
2018-06-08T08:13:00.743Z,95.93
2018-06-08T08:14:00.793Z,94.96
2018-06-08T08:15:00.785Z,95.30
2018-06-08T08:16:01.122Z,94.82
2018-06-08T08:17:00.735Z,94.43
2018-06-08T08:18:00.729Z,93.37
2018-06-08T08:19:00.754Z,93.80
2018-06-08T08:20:00.868Z,93.32
2018-06-08T08:21:00.688Z,92.83
2018-06-08T08:22:00.660Z,92.45
2018-06-08T08:23:00.675Z,92.55
2018-06-08T08:24:00.644Z,93.23
2018-06-08T08:25:00.636Z,92.45
2018-06-08T08:26:00.648Z,92.35
2018-06-08T08:27:00.633Z,91.87
2018-06-08T08:28:00.606Z,92.65
2018-06-08T08:29:00.599Z,92.07
2018-06-08T08:30:00.593Z,91.53
2018-06-08T08:31:00.569Z,89.98
2018-06-08T08:32:00.609Z,89.01
2018-06-08T08:33:00.591Z,89.50
2018-06-08T08:34:00.570Z,88.73
2018-06-08T08:35:00.553Z,89.59
2018-06-08T08:36:00.538Z,90.03
2018-06-08T08:37:00.541Z,89.64
2018-06-08T08:38:00.520Z,89.45
2018-06-08T08:39:00.540Z,89.64
2018-06-08T08:40:00.524Z,89.06
2018-06-08T08:41:00.498Z,88.57
2018-06-08T08:42:00.483Z,87.90
2018-06-08T08:43:00.478Z,87.99
2018-06-08T08:44:00.474Z,88.96
2018-06-08T08:45:00.462Z,89.45
2018-06-08T08:46:00.479Z,90.99
2018-06-08T08:47:00.433Z,91.09
2018-06-08T08:48:00.427Z,91.48
2018-06-08T08:49:00.510Z,91.05
2018-06-08T08:50:00.419Z,93.17
2018-06-08T08:51:00.403Z,95.10
2018-06-08T08:52:00.444Z,94.43
2018-06-08T08:53:00.378Z,91.63
2018-06-08T08:54:00.377Z,93.17
2018-06-08T08:55:00.356Z,93.56
2018-06-08T08:56:00.469Z,93.85
2018-06-08T08:57:00.352Z,93.75
2018-06-08T08:58:00.357Z,94.04
2018-06-08T08:59:00.362Z,95.30
2018-06-08T09:00:00.473Z,94.62
2018-06-08T09:01:00.310Z,95.01
2018-06-08T09:02:00.305Z,95.59
2018-06-08T09:03:00.284Z,94.91
2018-06-08T09:04:00.294Z,95.40
2018-06-08T09:05:00.292Z,96.65
2018-06-08T09:06:00.399Z,95.68
2018-06-08T09:07:00.259Z,97.14
2018-06-08T09:08:00.261Z,97.14
2018-06-08T09:09:00.260Z,97.81
2018-06-08T09:10:00.261Z,99.02
2018-06-08T09:11:00.236Z,98.05
2018-06-08T09:12:00.263Z,96.12
2018-06-08T09:13:00.246Z,95.15
2018-06-08T09:14:00.204Z,94.76
2018-06-08T09:15:00.231Z,94.81
2018-06-08T09:16:00.180Z,93.46
2018-06-08T09:17:00.167Z,92.88
2018-06-08T09:18:00.155Z,91.72
2018-06-08T09:19:00.147Z,91.42
2018-06-08T09:20:00.217Z,92.49
2018-06-08T09:21:00.160Z,91.24
2018-06-08T09:22:00.181Z,91.52
2018-06-08T09:23:00.160Z,91.52
2018-06-08T09:24:00.113Z,90.94
2018-06-08T09:25:00.112Z,90.41
2018-06-08T09:26:00.108Z,90.12
2018-06-08T09:27:00.083Z,89.15
2018-06-08T09:28:00.089Z,89.63
2018-06-08T09:29:00.412Z,89.15
2018-06-08T09:30:00.177Z,88.85
2018-06-08T09:31:00.058Z,88.37
2018-06-08T09:32:00.071Z,88.67
2018-06-08T09:33:00.038Z,89.63
2018-06-08T09:34:00.032Z,89.77
2018-06-08T09:35:00.026Z,89.15
2018-06-08T09:35:59.994Z,89.73
2018-06-08T09:36:59.983Z,90.70
2018-06-08T09:38:00.054Z,90.21
2018-06-08T09:39:00.037Z,92.15
2018-06-08T09:40:00.024Z,90.60
2018-06-08T09:40:59.956Z,90.70
2018-06-08T09:41:59.961Z,92.00
2018-06-08T09:42:59.960Z,92.49
2018-06-08T09:43:59.958Z,91.24
2018-06-08T09:44:59.920Z,92.20
2018-06-08T09:45:59.996Z,92.40
2018-06-08T09:46:59.926Z,92.49
2018-06-08T09:47:59.916Z,93.31
2018-06-08T09:48:59.882Z,91.76
2018-06-08T09:49:59.915Z,90.26
2018-06-08T09:50:59.893Z,91.52
2018-06-08T09:51:59.890Z,90.89
2018-06-08T09:52:59.861Z,90.80
2018-06-08T09:53:59.908Z,89.15
2018-06-08T09:54:59.846Z,89.25
2018-06-08T09:55:59.857Z,89.53
2018-06-08T09:56:59.824Z,89.97
2018-06-08T09:57:59.828Z,89.92
2018-06-08T09:58:59.814Z,89.92
2018-06-08T09:59:59.796Z,90.21
2018-06-08T10:00:59.797Z,89.11
2018-06-08T10:01:59.785Z,90.70
2018-06-08T10:02:59.780Z,90.94
2018-06-08T10:03:59.769Z,89.01
2018-06-08T10:04:59.760Z,89.69
2018-06-08T10:05:59.775Z,89.39
2018-06-08T10:06:59.765Z,88.81
2018-06-08T10:07:59.752Z,88.33
2018-06-08T10:08:59.732Z,88.91
2018-06-08T10:09:59.750Z,89.35
2018-06-08T10:10:59.722Z,89.88
2018-06-08T10:11:59.717Z,89.69
2018-06-08T10:12:59.696Z,90.12
2018-06-08T10:13:59.679Z,90.80
2018-06-08T10:14:59.743Z,90.70
2018-06-08T10:15:59.674Z,90.70
2018-06-08T10:16:59.682Z,90.51
2018-06-08T10:17:59.683Z,91.19
2018-06-08T10:18:59.647Z,91.77
2018-06-08T10:19:59.647Z,90.51
2018-06-08T10:20:59.647Z,92.06
2018-06-08T10:21:59.620Z,91.67
2018-06-08T10:22:59.635Z,91.58
2018-06-08T10:23:59.614Z,92.44
2018-06-08T10:24:59.652Z,93.41
2018-06-08T10:25:59.658Z,92.54
2018-06-08T10:26:59.584Z,92.25
2018-06-08T10:27:59.597Z,92.25
2018-06-08T10:28:59.578Z,92.54
2018-06-08T10:29:59.547Z,92.44
2018-06-08T10:30:59.545Z,93.02
2018-06-08T10:31:59.543Z,94.48
2018-06-08T10:32:59.534Z,94.28
2018-06-08T10:33:59.598Z,94.18
2018-06-08T10:34:59.528Z,93.02
2018-06-08T10:35:59.512Z,94.18
2018-06-08T10:36:59.494Z,95.54
2018-06-08T10:37:59.546Z,94.76
2018-06-08T10:38:59.471Z,93.90
2018-06-08T10:39:59.485Z,93.95
2018-06-08T10:40:59.463Z,94.96
2018-06-08T10:41:59.464Z,94.43
2018-06-08T10:42:59.450Z,94.24
2018-06-08T10:43:59.434Z,94.33
2018-06-08T10:44:59.422Z,95.68
2018-06-08T10:45:59.406Z,93.85
2018-06-08T10:46:59.426Z,93.85
2018-06-08T10:47:59.421Z,93.95
2018-06-08T10:48:59.444Z,94.67
2018-06-08T10:50:00.265Z,94.62
2018-06-08T10:50:59.369Z,94.72
2018-06-08T10:51:59.391Z,96.31
2018-06-08T10:52:59.357Z,97.86
2018-06-08T10:53:59.356Z,97.86
2018-06-08T10:54:59.339Z,99.41
2018-06-08T10:55:59.321Z,99.99
2018-06-08T10:56:59.319Z,99.99
2018-06-08T10:57:59.313Z,99.99
2018-06-08T10:58:59.305Z,99.99
2018-06-08T10:59:59.284Z,99.99
2018-06-08T11:00:59.474Z,99.99
2018-06-08T11:01:59.271Z,99.99
2018-06-08T11:02:59.257Z,99.99
2018-06-08T11:03:59.229Z,99.99
2018-06-08T11:04:59.221Z,99.99
2018-06-08T11:05:59.325Z,99.99
2018-06-08T11:06:59.222Z,99.99
2018-06-08T11:07:59.225Z,99.99
2018-06-08T11:08:59.211Z,99.99
2018-06-08T11:09:59.240Z,99.99
2018-06-08T11:10:59.171Z,99.99
2018-06-08T11:11:59.152Z,99.99
2018-06-08T11:12:59.161Z,99.99
2018-06-08T11:13:59.142Z,99.99
2018-06-08T11:14:59.137Z,99.99
2018-06-08T11:15:59.157Z,99.99
2018-06-08T11:16:59.125Z,99.99
2018-06-08T11:17:59.099Z,99.99
2018-06-08T11:18:59.120Z,99.99
2018-06-08T11:19:59.079Z,99.99
2018-06-08T11:20:59.069Z,99.99
2018-06-08T11:21:59.084Z,99.99
2018-06-08T11:22:59.047Z,99.99
2018-06-08T11:23:59.042Z,99.99
2018-06-08T11:24:59.026Z,99.99
2018-06-08T11:25:59.020Z,99.99
2018-06-08T11:26:59.088Z,99.99
2018-06-08T11:27:59.006Z,99.99
2018-06-08T11:28:58.997Z,99.99
2018-06-08T11:29:58.991Z,99.99
2018-06-08T11:30:58.968Z,99.99
2018-06-08T11:31:58.981Z,99.99
2018-06-08T11:32:58.982Z,99.99
2018-06-08T11:33:58.979Z,99.99
2018-06-08T11:34:58.927Z,99.99
2018-06-08T11:35:58.920Z,99.99
2018-06-08T11:36:58.916Z,99.99
2018-06-08T11:37:58.919Z,99.99
2018-06-08T11:38:58.886Z,99.99
2018-06-08T11:39:58.865Z,99.99
2018-06-08T11:40:58.880Z,99.99
2018-06-08T11:41:58.878Z,99.99
2018-06-08T11:42:58.922Z,99.99
2018-06-08T11:43:58.843Z,99.99
2018-06-08T11:44:58.849Z,99.99
2018-06-08T11:45:58.800Z,99.99
2018-06-08T11:46:58.795Z,99.99
2018-06-08T11:47:58.800Z,99.99
2018-06-08T11:48:59.295Z,99.99
2018-06-08T11:49:58.761Z,99.99
2018-06-08T11:50:58.758Z,99.99
2018-06-08T11:51:58.879Z,99.99
2018-06-08T11:52:58.728Z,99.99
2018-06-08T11:53:58.765Z,99.99
2018-06-08T11:54:58.739Z,99.99
2018-06-08T11:55:58.721Z,99.99
2018-06-08T11:56:58.675Z,99.99
2018-06-08T11:57:58.669Z,99.99
2018-06-08T11:58:58.660Z,99.99
2018-06-08T11:59:58.874Z,99.99
2018-06-08T12:00:58.665Z,99.99
2018-06-08T12:01:58.623Z,99.99
2018-06-08T12:02:58.617Z,99.99
2018-06-08T12:03:58.604Z,99.99
2018-06-08T12:04:58.600Z,99.99
2018-06-08T12:05:58.610Z,99.99
2018-06-08T12:06:58.584Z,99.99
2018-06-08T12:07:58.591Z,99.99
2018-06-08T12:08:58.587Z,99.99
2018-06-08T12:09:58.545Z,99.99
2018-06-08T12:10:58.534Z,99.99
2018-06-08T12:11:58.525Z,99.99
2018-06-08T12:12:58.518Z,99.99
2018-06-08T12:13:58.479Z,99.99
2018-06-08T12:14:58.496Z,99.99
2018-06-08T12:15:58.458Z,99.99
2018-06-08T12:16:58.478Z,99.99
2018-06-08T12:17:58.443Z,99.99
2018-06-08T12:18:58.424Z,99.99
2018-06-08T12:19:58.407Z,99.99
2018-06-08T12:20:58.407Z,99.99
2018-06-08T12:21:58.384Z,99.99
2018-06-08T12:22:58.388Z,99.99
2018-06-08T12:23:58.379Z,99.99
2018-06-08T12:24:58.357Z,99.99
2018-06-08T12:25:58.347Z,99.99
2018-06-08T12:26:58.340Z,99.99
2018-06-08T12:27:58.373Z,99.99
2018-06-08T12:28:58.318Z,99.99
2018-06-08T12:29:58.296Z,99.99
2018-06-08T12:30:58.305Z,99.99
2018-06-08T12:31:58.273Z,99.99
2018-06-08T12:32:58.270Z,99.99
2018-06-08T12:33:58.247Z,99.99
2018-06-08T12:34:58.249Z,99.99
2018-06-08T12:35:58.245Z,99.99
2018-06-08T12:36:58.212Z,99.99
2018-06-08T12:38:01.225Z,99.99
2018-06-08T12:38:58.217Z,99.99
2018-06-08T12:39:58.186Z,99.99
2018-06-08T12:40:58.177Z,99.99
2018-06-08T12:41:58.155Z,99.99
2018-06-08T12:42:58.141Z,99.99
2018-06-08T12:43:58.126Z,99.99
2018-06-08T12:44:58.133Z,99.99
2018-06-08T12:45:58.102Z,99.99
2018-06-08T12:46:58.089Z,99.99
2018-06-08T12:47:58.084Z,99.99
2018-06-08T12:48:58.113Z,99.99
2018-06-08T12:49:58.081Z,99.99
2018-06-08T12:50:58.053Z,99.99
2018-06-08T12:51:58.031Z,99.99
2018-06-08T12:52:58.026Z,99.99
2018-06-08T12:53:58.032Z,99.99
2018-06-08T12:54:58.007Z,99.99
2018-06-08T12:55:58.002Z,99.99
2018-06-08T12:56:58.006Z,99.99
2018-06-08T12:57:57.961Z,99.99
2018-06-08T12:58:57.964Z,99.99
2018-06-08T12:59:57.939Z,99.99
2018-06-08T13:00:57.965Z,99.99
2018-06-08T13:01:57.917Z,99.99
2018-06-08T13:02:57.916Z,99.99
2018-06-08T13:03:57.927Z,99.99
2018-06-08T13:04:57.885Z,99.99
2018-06-08T13:05:57.867Z,99.99